Aviation Digital Data Service (ADDS)

Output produced by METARs form (1907 UTC 24 April 2017)
found at http://bcaws.aviationweather.gov/adds/metars/
 
METAR text: KSQL 241847Z 25010KT 10SM BKN023 OVC080 15/10 A3010
Conditions at: KSQL (SAN CARLOS AIRPO, CA, US) observed 1847 UTC 24 April 2017
Temperature: 15.0°C (59°F)
Dewpoint: 10.0°C (50°F) [RH = 72%]
Pressure (altimeter): 30.10 inches Hg (1019.4 mb)
Winds: from the WSW (250 degrees) at 12 MPH (10 knots; 5.2 m/s)
Visibility: 10 or more miles (16+ km)
Ceiling: 2300 feet AGL
Clouds: broken clouds at 2300 feet AGL
overcast cloud deck at 8000 feet AGL
Weather: no significant weather observed at this time